Time;durP1;ratioP1;P1;durP2;ratioP2;P2;SDS_P1;SDS_P2;PMS_P1;PMS_P2;Temp;Humidity;BMP_temperature;BMP_pressure;BME280_temperature;BME280_humidity;BME280_pressure;Samples;Min_cycle;Max_cycle;Signal;HPM_P1;HPM_P2
2023/09/13 00:03:52;;;;;;;;;;;;;;;20.50;100.00;95455.97;10458099;28;1919;-73
2023/09/13 00:08:57;;;;;;;;;;;;;;;20.36;100.00;95451.97;10454304;28;1934;-73
2023/09/13 00:14:01;;;;;;;;;;;;;;;20.88;100.00;95449.25;10457873;28;1967;-73
2023/09/13 00:19:10;;;;;;;;;;;;;;;20.15;100.00;95452.13;10440509;28;2025;-74
2023/09/13 00:24:16;;;;;;;;;;;;;;;19.69;100.00;95448.69;10463727;28;1874;-73
2023/09/13 00:29:22;;;;;;;;;;;;;;;19.68;100.00;95456.09;10455697;28;2632;-74
2023/09/13 00:34:25;;;;;;;;;;;;;;;19.98;100.00;95466.81;10468091;28;1903;-73
2023/09/13 00:39:30;;;;;;;;;;;;;;;20.07;100.00;95480.31;10470795;28;1894;-73
2023/09/13 00:44:33;;;;;;;;;;;;;;;20.00;100.00;95461.78;10433951;28;1893;-72
2023/09/13 00:49:42;;;;;;;;;;;;;;;19.96;100.00;95458.16;10462870;28;2183;-75
2023/09/13 00:54:47;;;;;;;;;;;;;;;19.80;100.00;95460.75;10462634;28;2092;-70
2023/09/13 00:59:55;;;;;;;;;;;;;;;19.52;100.00;95470.69;10450286;28;2319;-70
2023/09/13 01:04:58;;;;;;;;;;;;;;;19.43;100.00;95468.84;10451782;28;1965;-70
2023/09/13 01:10:04;;;;;;;;;;;;;;;19.33;100.00;95479.38;10454334;28;1983;-72
2023/09/13 01:15:11;;;;;;;;;;;;;;;19.31;100.00;95474.25;10464695;28;2542;-73
2023/09/13 01:20:13;;;;;;;;;;;;;;;19.20;100.00;95481.25;10469214;28;5084;-72
2023/09/13 01:25:17;;;;;;;;;;;;;;;19.04;100.00;95483.03;10442286;28;2004;-72
2023/09/13 01:30:21;;;;;;;;;;;;;;;18.87;100.00;95471.16;10465956;28;1991;-72
2023/09/13 01:35:24;;;;;;;;;;;;;;;18.82;100.00;95470.56;10466276;28;1969;-71
2023/09/13 01:40:30;;;;;;;;;;;;;;;18.80;100.00;95465.44;10449108;28;2013;-71
2023/09/13 01:45:34;;;;;;;;;;;;;;;18.83;100.00;95467.53;10442730;28;2059;-71
2023/09/13 01:50:37;;;;;;;;;;;;;;;18.89;100.00;95478.97;10463441;28;2262;-71
2023/09/13 01:55:42;;;;;;;;;;;;;;;18.83;100.00;95477.59;10435566;28;1961;-70
2023/09/13 02:00:45;;;;;;;;;;;;;;;18.72;100.00;95479.16;10462480;28;1992;-70
2023/09/13 02:05:50;;;;;;;;;;;;;;;18.68;100.00;95476.28;10462362;28;1981;-70
2023/09/13 02:10:59;;;;;;;;;;;;;;;18.67;100.00;95491.03;10440732;28;2106;-71
2023/09/13 02:16:02;;;;;;;;;;;;;;;18.70;100.00;95495.78;10441717;28;5176;-72
2023/09/13 02:21:09;;;;;;;;;;;;;;;18.65;100.00;95504.16;10459473;28;2000;-72
2023/09/13 02:26:12;;;;;;;;;;;;;;;18.77;100.00;95515.13;10451388;28;1996;-72
2023/09/13 02:31:18;;;;;;;;;;;;;;;18.78;100.00;95513.22;10462623;28;2040;-71
2023/09/13 02:36:22;;;;;;;;;;;;;;;18.95;100.00;95521.22;10459109;28;1929;-70
2023/09/13 02:41:27;;;;;;;;;;;;;;;19.02;100.00;95531.59;10462014;28;1930;-72
2023/09/13 02:46:38;;;;;;;;;;;;;;;19.05;100.00;95537.19;10459142;28;2133;-72
2023/09/13 02:51:54;;;;;;;;;;;;;;;19.05;100.00;95539.09;10460740;28;2125;-71
2023/09/13 02:56:57;;;;;;;;;;;;;;;18.94;100.00;95532.47;10463272;28;2132;-70
2023/09/13 03:02:01;;;;;;;;;;;;;;;18.91;100.00;95531.22;10428786;28;2543;-71
2023/09/13 03:07:04;;;;;;;;;;;;;;;18.97;100.00;95537.25;10459912;28;1958;-71
2023/09/13 03:12:08;;;;;;;;;;;;;;;19.03;100.00;95534.00;10443661;28;2405;-70
2023/09/13 03:17:13;;;;;;;;;;;;;;;18.91;100.00;95539.38;10448502;28;5009;-70
2023/09/13 03:22:16;;;;;;;;;;;;;;;18.78;100.00;95529.56;10444391;28;1922;-72
2023/09/13 03:27:23;;;;;;;;;;;;;;;18.75;100.00;95519.31;10427326;28;2087;-71
2023/09/13 03:32:29;;;;;;;;;;;;;;;18.79;100.00;95521.03;10456989;28;7450;-71
2023/09/13 03:37:33;;;;;;;;;;;;;;;18.93;100.00;95526.22;10439472;28;5937;-71
2023/09/13 03:42:40;;;;;;;;;;;;;;;19.06;100.00;95510.72;10448285;28;5379;-73
2023/09/13 03:47:43;;;;;;;;;;;;;;;19.10;100.00;95514.38;10429034;28;2012;-70
2023/09/13 03:52:47;;;;;;;;;;;;;;;19.15;100.00;95517.72;10438680;28;3897;-70
2023/09/13 03:57:51;;;;;;;;;;;;;;;19.12;100.00;95529.25;10444405;28;1988;-71
2023/09/13 04:02:59;;;;;;;;;;;;;;;19.12;100.00;95520.28;10448676;28;2243;-71
2023/09/13 04:08:02;;;;;;;;;;;;;;;19.17;100.00;95520.09;10460387;28;2923;-70
2023/09/13 04:13:05;;;;;;;;;;;;;;;19.20;100.00;95524.84;10452810;28;2326;-70
2023/09/13 04:18:10;;;;;;;;;;;;;;;19.37;100.00;95530.16;10456477;28;1999;-71
2023/09/13 04:23:14;;;;;;;;;;;;;;;19.43;100.00;95531.53;10454527;28;2493;-73
2023/09/13 04:28:22;;;;;;;;;;;;;;;19.41;100.00;95547.44;10468870;28;1970;-72
2023/09/13 04:33:25;;;;;;;;;;;;;;;19.36;100.00;95544.91;10460758;28;2040;-72
2023/09/13 04:38:29;;;;;;;;;;;;;;;19.40;100.00;95550.47;10466108;28;2173;-72
2023/09/13 04:43:34;;;;;;;;;;;;;;;19.47;100.00;95555.38;10453929;28;5131;-72
2023/09/13 04:48:46;;;;;;;;;;;;;;;19.49;100.00;95553.94;10464764;28;2263;-72
2023/09/13 04:53:49;;;;;;;;;;;;;;;19.46;100.00;95557.31;10453048;28;1949;-71
2023/09/13 04:58:55;;;;;;;;;;;;;;;19.54;100.00;95555.66;10434045;28;1942;-70
2023/09/13 05:03:59;;;;;;;;;;;;;;;19.73;100.00;95569.63;10449183;28;2383;-72
2023/09/13 05:09:05;;;;;;;;;;;;;;;19.89;100.00;95567.81;10436668;28;2236;-73
2023/09/13 05:14:11;;;;;;;;;;;;;;;20.09;100.00;95573.53;10449572;28;2048;-71
2023/09/13 05:19:17;;;;;;;;;;;;;;;20.21;100.00;95571.63;10460674;28;2025;-71
2023/09/13 05:24:23;;;;;;;;;;;;;;;20.31;100.00;95580.50;10464763;28;1973;-72
2023/09/13 05:35:16;;;;;;;;;;;;;;;20.69;100.00;95585.66;10460884;28;2045;-72
2023/09/13 05:40:23;;;;;;;;;;;;;;;20.73;100.00;95594.75;10448317;28;1980;-70
2023/09/13 05:45:36;;;;;;;;;;;;;;;20.59;100.00;95599.75;10435503;28;2248;-72
2023/09/13 05:51:05;;;;;;;;;;;;;;;20.18;100.00;95612.44;10473075;28;2536;-70
2023/09/13 05:56:08;;;;;;;;;;;;;;;19.64;100.00;95615.25;10475151;28;1946;-73
2023/09/13 06:01:12;;;;;;;;;;;;;;;19.19;100.00;95629.53;10452241;28;2314;-71
2023/09/13 06:06:16;;;;;;;;;;;;;;;18.84;100.00;95643.41;10463384;28;1944;-71
2023/09/13 06:11:24;;;;;;;;;;;;;;;18.37;100.00;95648.84;10463530;28;2116;-71
2023/09/13 06:21:49;;;;;;;;;;;;;;;18.08;100.00;95660.47;10455694;28;1945;-70
2023/09/13 06:27:02;;;;;;;;;;;;;;;17.99;100.00;95664.34;10437374;28;1987;-71
2023/09/13 06:32:06;;;;;;;;;;;;;;;18.04;100.00;95666.88;10475667;28;1913;-71
2023/09/13 06:37:09;;;;;;;;;;;;;;;18.35;100.00;95670.16;10467909;28;2494;-71
2023/09/13 06:42:13;;;;;;;;;;;;;;;18.44;100.00;95677.50;10469319;28;5207;-75
2023/09/13 06:47:30;;;;;;;;;;;;;;;18.58;100.00;95683.53;10466105;28;1888;-70
2023/09/13 06:52:35;;;;;;;;;;;;;;;18.86;100.00;95683.91;10450123;28;1989;-73
2023/09/13 06:57:59;;;;;;;;;;;;;;;19.07;100.00;95678.50;10451752;28;2005;-73
2023/09/13 07:03:10;;;;;;;;;;;;;;;19.38;100.00;95681.66;10455028;28;1827;-72
2023/09/13 07:08:17;;;;;;;;;;;;;;;19.59;100.00;95689.06;10447425;28;2138;-72
2023/09/13 07:13:23;;;;;;;;;;;;;;;19.63;100.00;95690.00;10467857;28;1932;-76
2023/09/13 07:18:38;;;;;;;;;;;;;;;19.87;100.00;95681.94;10445423;28;2044;-75
2023/09/13 07:23:45;;;;;;;;;;;;;;;19.89;100.00;95682.38;10448554;28;2975;-75
2023/09/13 07:28:52;;;;;;;;;;;;;;;20.04;100.00;95678.25;10470746;28;1875;-73
2023/09/13 07:34:00;;;;;;;;;;;;;;;20.14;100.00;95691.47;10454771;28;1963;-72
2023/09/13 07:39:04;;;;;;;;;;;;;;;20.48;100.00;95703.16;10459324;28;1922;-74
2023/09/13 07:44:07;;;;;;;;;;;;;;;20.69;100.00;95711.31;10481024;28;1859;-72
2023/09/13 07:49:11;;;;;;;;;;;;;;;20.98;100.00;95710.28;10481983;28;1950;-70
2023/09/13 07:54:14;;;;;;;;;;;;;;;21.18;100.00;95712.09;10473788;28;1937;-69
2023/09/13 07:59:19;;;;;;;;;;;;;;;21.53;100.00;95692.50;10449758;28;1874;-72
2023/09/13 08:04:25;;;;;;;;;;;;;;;21.59;100.00;95691.91;10467297;28;2009;-73
2023/09/13 08:09:30;;;;;;;;;;;;;;;21.95;100.00;95698.41;10470076;28;2537;-73
2023/09/13 08:14:35;;;;;;;;;;;;;;;22.06;100.00;95695.94;10468307;28;1971;-75
2023/09/13 08:20:04;;;;;;;;;;;;;;;22.05;100.00;95710.78;10468827;28;2095;-73
2023/09/13 08:25:09;;;;;;;;;;;;;;;22.31;100.00;95711.16;10478267;28;2306;-76
2023/09/13 08:30:15;;;;;;;;;;;;;;;22.85;100.00;95712.53;10450630;28;1879;-74
2023/09/13 08:35:26;;;;;;;;;;;;;;;22.95;100.00;95716.72;10458672;28;1921;-75
2023/09/13 08:40:35;;;;;;;;;;;;;;;23.09;100.00;95717.84;10471608;28;4789;-75
2023/09/13 08:45:38;;;;;;;;;;;;;;;22.54;100.00;95727.81;10436042;28;1895;-74
2023/09/13 08:50:41;;;;;;;;;;;;;;;22.19;100.00;95733.09;10476284;28;2611;-75
2023/09/13 08:55:46;;;;;;;;;;;;;;;21.81;100.00;95737.09;10469612;28;1899;-75
2023/09/13 09:00:59;;;;;;;;;;;;;;;;;;10473886;28;1911;-73
2023/09/13 09:06:03;;;;;;;;;;;;;;;22.33;100.00;95740.91;10467776;28;1871;-74
2023/09/13 09:11:18;;;;;;;;;;;;;;;22.88;100.00;95722.81;10467638;28;1913;-76
2023/09/13 09:16:21;;;;;;;;;;;;;;;23.28;100.00;95724.56;10446070;28;1950;-76
2023/09/13 09:21:27;;;;;;;;;;;;;;;23.55;100.00;95718.13;10451532;28;2022;-75
2023/09/13 09:26:36;;;;;;;;;;;;;;;23.26;100.00;95713.16;10472784;28;1964;-74
2023/09/13 09:31:38;;;;;;;;;;;;;;;23.38;100.00;95708.34;10444813;28;1907;-74
2023/09/13 09:36:41;;;;;;;;;;;;;;;23.71;100.00;95705.19;10469127;28;2669;-74
2023/09/13 09:41:50;;;;;;;;;;;;;;;23.37;100.00;95714.19;10470564;28;1894;-75
2023/09/13 09:46:54;;;;;;;;;;;;;;;23.50;100.00;95706.66;10451743;28;2031;-75
2023/09/13 09:52:04;;;;;;;;;;;;;;;23.54;100.00;95705.59;10446601;28;1923;-74
2023/09/13 09:57:09;;;;;;;;;;;;;;;24.12;100.00;95700.16;10450785;28;1988;-75
2023/09/13 10:02:12;;;;;;;;;;;;;;;24.33;100.00;95702.50;10463101;28;2085;-75
2023/09/13 10:07:16;;;;;;;;;;;;;;;24.07;100.00;95694.94;10478399;28;1891;-76
2023/09/13 10:12:23;;;;;;;;;;;;;;;23.86;100.00;95702.75;10445540;28;2017;-73
2023/09/13 10:17:28;;;;;;;;;;;;;;;24.22;100.00;95696.81;10450866;28;1881;-74
2023/09/13 10:22:33;;;;;;;;;;;;;;;24.33;100.00;95701.72;10451386;28;1894;-76
2023/09/13 10:27:39;;;;;;;;;;;;;;;24.26;100.00;95697.69;10469022;28;1878;-76
2023/09/13 10:32:42;;;;;;;;;;;;;;;24.19;100.00;95700.28;10461341;28;1915;-75
2023/09/13 10:37:50;;;;;;;;;;;;;;;23.86;100.00;95694.53;10443700;28;2565;-75
2023/09/13 10:42:55;;;;;;;;;;;;;;;23.60;100.00;95692.34;10449382;28;2139;-76
2023/09/13 10:47:59;;;;;;;;;;;;;;;23.54;100.00;95694.59;10470405;28;1966;-75
2023/09/13 10:53:02;;;;;;;;;;;;;;;23.53;100.00;95682.00;10455506;28;1986;-74
2023/09/13 10:58:20;;;;;;;;;;;;;;;23.75;100.00;95677.03;10433805;28;1850;-76
2023/09/13 11:03:32;;;;;;;;;;;;;;;23.43;100.00;95672.41;10461128;28;1898;-76
2023/09/13 11:08:35;;;;;;;;;;;;;;;23.84;100.00;95677.59;10443182;28;1913;-77
2023/09/13 11:13:39;;;;;;;;;;;;;;;23.27;100.00;95687.31;10450938;28;2264;-75
2023/09/13 11:18:48;;;;;;;;;;;;;;;22.36;100.00;95685.44;10463871;28;1879;-76
2023/09/13 11:23:53;;;;;;;;;;;;;;;21.31;100.00;95718.38;10462901;28;2558;-77
2023/09/13 11:28:59;;;;;;;;;;;;;;;19.98;100.00;95740.41;10467796;28;1894;-76
2023/09/13 11:34:03;;;;;;;;;;;;;;;19.25;100.00;95777.28;10429640;28;2028;-76
2023/09/13 11:39:08;;;;;;;;;;;;;;;19.02;100.00;95769.41;10467033;28;1878;-76
2023/09/13 11:44:18;;;;;;;;;;;;;;;18.97;100.00;95771.50;10459486;28;5117;-76
2023/09/13 11:49:34;;;;;;;;;;;;;;;18.97;100.00;95788.66;10461322;28;1951;-75
2023/09/13 11:54:41;;;;;;;;;;;;;;;18.88;100.00;95790.59;10452182;28;1902;-76
2023/09/13 12:00:07;;;;;;;;;;;;;;;19.00;100.00;95792.63;10462072;28;1884;-74
2023/09/13 12:05:14;;;;;;;;;;;;;;;18.98;100.00;95789.44;10460466;28;2230;-76
2023/09/13 12:10:40;;;;;;;;;;;;;;;19.20;100.00;95775.53;10439805;28;2814;-76
2023/09/13 12:15:46;;;;;;;;;;;;;;;19.26;100.00;95793.31;10446963;28;2043;-76
2023/09/13 12:20:56;;;;;;;;;;;;;;;19.41;100.00;95770.97;10466669;28;1993;-72
2023/09/13 12:25:59;;;;;;;;;;;;;;;19.70;100.00;95755.72;10472289;28;1875;-72
2023/09/13 12:31:03;;;;;;;;;;;;;;;19.98;100.00;95745.06;10468130;28;2014;-72
2023/09/13 12:36:09;;;;;;;;;;;;;;;20.25;100.00;95744.50;10443905;28;2074;-72
2023/09/13 12:41:13;;;;;;;;;;;;;;;20.55;100.00;95759.94;10443045;28;2088;-72
2023/09/13 12:46:17;;;;;;;;;;;;;;;20.49;100.00;95764.84;10452424;28;2104;-72
2023/09/13 12:51:21;;;;;;;;;;;;;;;20.18;100.00;95765.28;10462153;28;1888;-73
2023/09/13 12:56:24;;;;;;;;;;;;;;;19.93;100.00;95765.16;10474495;28;2610;-76
2023/09/13 13:01:29;;;;;;;;;;;;;;;19.79;100.00;95764.66;10450146;28;1927;-72
2023/09/13 13:06:36;;;;;;;;;;;;;;;19.81;100.00;95773.28;10444194;28;1871;-73
2023/09/13 13:11:40;;;;;;;;;;;;;;;19.21;100.00;95787.25;10467251;28;1977;-73
2023/09/13 13:16:53;;;;;;;;;;;;;;;19.03;100.00;95794.72;10444223;28;2001;-74
2023/09/13 13:21:58;;;;;;;;;;;;;;;19.12;100.00;95787.28;10447289;28;2081;-72
2023/09/13 13:27:13;;;;;;;;;;;;;;;18.97;100.00;95796.03;10445633;28;1928;-69
2023/09/13 13:32:18;;;;;;;;;;;;;;;18.96;100.00;95786.22;10479306;28;1985;-68
2023/09/13 13:37:22;;;;;;;;;;;;;;;19.05;100.00;95795.19;10460336;28;1899;-68
2023/09/13 13:42:26;;;;;;;;;;;;;;;18.81;100.00;95784.84;10455596;28;5015;-74
2023/09/13 13:47:30;;;;;;;;;;;;;;;18.77;100.00;95779.28;10451222;28;1992;-75
2023/09/13 13:52:35;;;;;;;;;;;;;;;18.97;100.00;95793.28;10467080;28;1950;-73
2023/09/13 13:57:42;;;;;;;;;;;;;;;19.10;100.00;95786.84;10437196;28;1896;-73
2023/09/13 14:02:59;;;;;;;;;;;;;;;19.12;100.00;95784.56;10473813;28;1887;-73
2023/09/13 14:08:02;;;;;;;;;;;;;;;19.31;100.00;95784.94;10465842;28;2243;-73
2023/09/13 14:13:05;;;;;;;;;;;;;;;19.40;100.00;95774.81;10465076;28;1969;-70
2023/09/13 14:18:09;;;;;;;;;;;;;;;19.15;100.00;95782.00;10462352;28;2167;-75
2023/09/13 14:23:13;;;;;;;;;;;;;;;19.09;100.00;95775.13;10488636;28;1836;-73
2023/09/13 14:28:20;;;;;;;;;;;;;;;19.25;100.00;95777.28;10473626;28;3026;-74
2023/09/13 14:33:25;;;;;;;;;;;;;;;19.27;100.00;95785.94;10449251;28;1983;-73
2023/09/13 14:38:32;;;;;;;;;;;;;;;19.39;100.00;95795.00;10469862;28;1859;-78
2023/09/13 14:43:39;;;;;;;;;;;;;;;19.37;100.00;95799.19;10453687;28;5070;-76
2023/09/13 14:48:42;;;;;;;;;;;;;;;19.50;100.00;95783.72;10454744;28;1894;-74
2023/09/13 14:53:46;;;;;;;;;;;;;;;19.13;100.00;95791.63;10455107;28;1982;-74
2023/09/13 14:58:49;;;;;;;;;;;;;;;18.95;100.00;95785.44;10470226;28;1836;-75
2023/09/13 15:03:55;;;;;;;;;;;;;;;18.87;100.00;95791.72;10468284;28;1843;-75
2023/09/13 15:09:03;;;;;;;;;;;;;;;18.72;100.00;95794.97;10463792;28;2734;-77
2023/09/13 15:14:10;;;;;;;;;;;;;;;18.60;100.00;95803.78;10450540;28;1993;-74
2023/09/13 15:19:13;;;;;;;;;;;;;;;18.95;100.00;95804.50;10463813;28;1803;-75
2023/09/13 15:24:17;;;;;;;;;;;;;;;19.18;100.00;95810.50;10450228;28;1912;-75
2023/09/13 15:29:21;;;;;;;;;;;;;;;18.69;100.00;95820.91;10468727;28;1542;-74
2023/09/13 15:34:25;;;;;;;;;;;;;;;18.99;100.00;95815.56;10451972;28;2100;-72
2023/09/13 15:39:28;;;;;;;;;;;;;;;18.90;100.00;95816.38;10463696;28;1838;-73
2023/09/13 15:44:33;;;;;;;;;;;;;;;19.06;100.00;95813.13;10447890;28;4866;-73
2023/09/13 15:49:38;;;;;;;;;;;;;;;18.74;100.00;95817.22;10460776;28;1899;-73
2023/09/13 15:54:48;;;;;;;;;;;;;;;18.84;100.00;95812.25;10455528;28;2751;-72
2023/09/13 15:59:59;;;;;;;;;;;;;;;18.38;100.00;95821.09;10472097;28;1843;-69
2023/09/13 16:05:02;;;;;;;;;;;;;;;18.19;100.00;95824.16;10465377;28;1932;-70
2023/09/13 16:10:08;;;;;;;;;;;;;;;18.04;100.00;95819.19;10439140;28;1922;-70
2023/09/13 16:15:12;;;;;;;;;;;;;;;17.94;100.00;95822.22;10452695;28;1983;-70
2023/09/13 16:20:16;;;;;;;;;;;;;;;17.93;100.00;95828.78;10470262;28;1848;-70
2023/09/13 16:25:19;;;;;;;;;;;;;;;17.86;100.00;95825.75;10453376;28;1903;-72
2023/09/13 16:30:22;;;;;;;;;;;;;;;17.99;100.00;95835.69;10471454;28;1983;-70
2023/09/13 16:35:26;;;;;;;;;;;;;;;18.10;100.00;95839.69;10465721;28;2800;-70
2023/09/13 16:40:33;;;;;;;;;;;;;;;18.18;100.00;95841.59;10467579;28;4578;-69
2023/09/13 16:45:36;;;;;;;;;;;;;;;18.04;100.00;95833.59;10426087;28;1873;-69
2023/09/13 16:50:40;;;;;;;;;;;;;;;17.89;100.00;95828.66;10466744;28;1940;-69
2023/09/13 16:55:43;;;;;;;;;;;;;;;17.71;100.00;95840.59;10447765;28;1923;-69
2023/09/13 17:00:48;;;;;;;;;;;;;;;17.66;100.00;95849.69;10475308;28;1536;-69
2023/09/13 17:05:53;;;;;;;;;;;;;;;17.52;100.00;95854.44;10447583;28;1573;-71
2023/09/13 17:11:00;;;;;;;;;;;;;;;17.47;100.00;95862.75;10472476;28;1618;-70
2023/09/13 17:16:03;;;;;;;;;;;;;;;17.61;100.00;95859.91;10478932;28;1914;-69
2023/09/13 17:21:06;;;;;;;;;;;;;;;17.62;100.00;95858.78;10468891;28;1571;-69
2023/09/13 17:26:09;;;;;;;;;;;;;;;17.51;100.00;95852.84;10483777;28;2900;-69
2023/09/13 17:31:14;;;;;;;;;;;;;;;17.60;100.00;95848.22;10476683;28;1515;-70
2023/09/13 17:36:17;;;;;;;;;;;;;;;17.51;100.00;95847.41;10457424;28;1922;-69
2023/09/13 17:41:41;;;;;;;;;;;;;;;17.51;100.00;95852.84;10458610;28;1631;-69
2023/09/13 17:46:45;;;;;;;;;;;;;;;17.54;100.00;95854.91;10476670;28;1497;-70
2023/09/13 17:51:47;;;;;;;;;;;;;;;17.65;100.00;95863.59;10475609;28;1545;-70
2023/09/13 17:56:51;;;;;;;;;;;;;;;17.52;100.00;95874.28;10451716;28;1930;-70
2023/09/13 18:01:55;;;;;;;;;;;;;;;17.53;100.00;95883.22;10466597;28;1426;-69
2023/09/13 18:07:01;;;;;;;;;;;;;;;17.46;100.00;95897.25;10474721;28;1446;-69
2023/09/13 18:12:04;;;;;;;;;;;;;;;17.43;100.00;95900.63;10472927;28;2758;-69
2023/09/13 18:17:13;;;;;;;;;;;;;;;17.52;100.00;95903.38;10479078;28;1971;-69
2023/09/13 18:22:16;;;;;;;;;;;;;;;17.44;100.00;95912.28;10468050;28;1501;-68
2023/09/13 18:27:20;;;;;;;;;;;;;;;17.42;100.00;95912.59;10463611;28;1709;-72
2023/09/13 18:32:23;;;;;;;;;;;;;;;17.39;100.00;95904.28;10465209;28;1873;-70
2023/09/13 18:37:27;;;;;;;;;;;;;;;17.43;100.00;95911.50;10468418;28;1981;-70
2023/09/13 18:42:31;;;;;;;;;;;;;;;17.40;100.00;95914.03;10460853;28;4772;-70
2023/09/13 18:47:42;;;;;;;;;;;;;;;17.31;100.00;95916.72;10465820;28;1851;-70
2023/09/13 18:52:46;;;;;;;;;;;;;;;17.35;100.00;95917.69;10443644;28;2190;-69
2023/09/13 18:57:54;;;;;;;;;;;;;;;17.25;100.00;95924.19;10452332;28;2936;-69
2023/09/13 19:03:07;;;;;;;;;;;;;;;17.24;100.00;95925.31;10466873;28;2240;-70
2023/09/13 19:08:17;;;;;;;;;;;;;;;17.20;100.00;95935.19;10459755;28;1993;-70
2023/09/13 19:13:21;;;;;;;;;;;;;;;17.20;100.00;95935.19;10460877;28;1973;-70
2023/09/13 19:18:25;;;;;;;;;;;;;;;17.20;100.00;95948.78;10457274;28;1912;-71
2023/09/13 19:23:28;;;;;;;;;;;;;;;17.16;100.00;95950.50;10461289;28;2011;-68
2023/09/13 19:28:32;;;;;;;;;;;;;;;17.13;100.00;95948.41;10446173;28;1842;-70
2023/09/13 19:33:38;;;;;;;;;;;;;;;17.09;100.00;95949.34;10454653;28;1937;-72
2023/09/13 19:38:43;;;;;;;;;;;;;;;16.97;100.00;95952.63;10462122;28;1997;-70
2023/09/13 19:43:46;;;;;;;;;;;;;;;17.01;100.00;95968.00;10448726;28;4893;-69
2023/09/13 19:48:49;;;;;;;;;;;;;;;17.04;100.00;95969.28;10456645;28;1881;-69
2023/09/13 19:53:54;;;;;;;;;;;;;;;16.88;100.00;95979.72;10463188;28;1980;-71
2023/09/13 19:58:57;;;;;;;;;;;;;;;16.83;100.00;95973.59;10468788;28;1904;-70
2023/09/13 20:04:04;;;;;;;;;;;;;;;16.90;100.00;95976.69;10458547;28;1864;-69
2023/09/13 20:09:07;;;;;;;;;;;;;;;16.89;100.00;95985.94;10454279;28;1949;-70
2023/09/13 20:14:09;;;;;;;;;;;;;;;16.85;100.00;95983.03;10445229;28;2037;-70
2023/09/13 20:19:13;;;;;;;;;;;;;;;16.87;100.00;95990.91;10442126;28;1859;-70
2023/09/13 20:24:17;;;;;;;;;;;;;;;17.00;100.00;95992.75;10460076;28;2135;-72
2023/09/13 20:29:21;;;;;;;;;;;;;;;16.99;100.00;95994.66;10440984;28;2791;-70
2023/09/13 20:34:25;;;;;;;;;;;;;;;17.06;100.00;96005.09;10452853;28;1973;-70
2023/09/13 20:39:29;;;;;;;;;;;;;;;16.93;100.00;96005.97;10452614;28;1862;-71
2023/09/13 20:44:32;;;;;;;;;;;;;;;17.14;100.00;96012.50;10447460;28;1879;-76
2023/09/13 20:49:36;;;;;;;;;;;;;;;17.46;100.00;96016.84;10467509;28;1900;-75
2023/09/13 20:54:39;;;;;;;;;;;;;;;17.42;100.00;96018.56;10477615;28;1910;-74
2023/09/13 20:59:43;;;;;;;;;;;;;;;17.62;100.00;96025.38;10436671;28;1835;-75
2023/09/13 21:04:46;;;;;;;;;;;;;;;17.25;100.00;96027.44;10458644;28;1903;-78
2023/09/13 21:09:49;;;;;;;;;;;;;;;17.18;100.00;96021.63;10451176;28;1823;-75
2023/09/13 21:14:56;;;;;;;;;;;;;;;17.15;100.00;96024.94;10444378;28;2809;-77
2023/09/13 21:20:00;;;;;;;;;;;;;;;17.20;100.00;96026.75;10462045;28;1902;-76
2023/09/13 21:25:04;;;;;;;;;;;;;;;17.15;100.00;96035.03;10455872;28;1826;-77
2023/09/13 21:30:08;;;;;;;;;;;;;;;17.32;100.00;96031.63;10455274;28;1634;-78
2023/09/13 21:35:12;;;;;;;;;;;;;;;16.89;100.00;96034.81;10454415;28;1906;-76
2023/09/13 21:40:15;;;;;;;;;;;;;;;16.78;100.00;96036.97;10461564;28;1872;-74
2023/09/13 21:45:19;;;;;;;;;;;;;;;16.73;100.00;96035.19;10476459;28;1922;-75
2023/09/13 21:50:25;;;;;;;;;;;;;;;16.64;100.00;96041.59;10446488;28;1999;-71
2023/09/13 21:55:28;;;;;;;;;;;;;;;16.67;100.00;96041.00;10470665;28;2003;-71
2023/09/13 22:00:32;;;;;;;;;;;;;;;16.70;100.00;96043.94;10446001;28;2791;-70
2023/09/13 22:05:36;;;;;;;;;;;;;;;16.65;100.00;96035.88;10467339;28;2037;-72
2023/09/13 22:10:40;;;;;;;;;;;;;;;16.61;100.00;96047.66;10449990;28;1942;-71
2023/09/13 22:15:45;;;;;;;;;;;;;;;16.66;100.00;96040.19;10469619;28;1977;-71
2023/09/13 22:20:54;;;;;;;;;;;;;;;16.67;100.00;96047.25;10466860;28;1890;-71
2023/09/13 22:25:58;;;;;;;;;;;;;;;16.69;100.00;96039.59;10446945;28;1911;-71
2023/09/13 22:31:06;;;;;;;;;;;;;;;16.65;100.00;96052.16;10459731;28;1959;-71
2023/09/13 22:36:10;;;;;;;;;;;;;;;16.69;100.00;96044.22;10443323;28;1910;-71
2023/09/13 22:41:13;;;;;;;;;;;;;;;16.70;100.00;96052.06;10462324;28;4647;-71
2023/09/13 22:46:16;;;;;;;;;;;;;;;16.65;100.00;96056.78;10454251;28;2961;-71
2023/09/13 22:51:20;;;;;;;;;;;;;;;16.63;100.00;96051.66;10476637;28;1851;-71
2023/09/13 22:56:23;;;;;;;;;;;;;;;16.65;100.00;96054.88;10444646;28;1971;-71
2023/09/13 23:01:26;;;;;;;;;;;;;;;16.55;100.00;96044.25;10446753;28;1981;-71
2023/09/13 23:06:30;;;;;;;;;;;;;;;16.55;100.00;96052.38;10454458;28;1827;-71
2023/09/13 23:11:34;;;;;;;;;;;;;;;16.63;100.00;96053.56;10442577;28;1891;-71
2023/09/13 23:16:37;;;;;;;;;;;;;;;16.56;100.00;96056.69;10456608;28;2053;-72
2023/09/13 23:21:42;;;;;;;;;;;;;;;16.58;100.00;96049.06;10459722;28;1926;-71
2023/09/13 23:26:46;;;;;;;;;;;;;;;16.56;100.00;96048.56;10443165;28;1851;-72
2023/09/13 23:31:50;;;;;;;;;;;;;;;16.59;100.00;96052.56;10440034;28;2899;-71
2023/09/13 23:36:55;;;;;;;;;;;;;;;16.67;100.00;96055.38;10463941;28;2059;-71
2023/09/13 23:41:58;;;;;;;;;;;;;;;16.68;100.00;96056.19;10451866;28;4551;-72
2023/09/13 23:47:01;;;;;;;;;;;;;;;16.70;100.00;96052.06;10448056;28;1978;-72
2023/09/13 23:52:03;;;;;;;;;;;;;;;16.70;100.00;96051.28;10439320;28;1875;-72
2023/09/13 23:57:07;;;;;;;;;;;;;;;16.77;100.00;96046.22;10455173;28;1980;-73
